createdAt,value
2023-05-09T00:00:44.542Z,77.6635
2023-05-09T00:01:45.588Z,78.1333
2023-05-09T00:02:46.522Z,78.3582
2023-05-09T00:03:47.561Z,78.1895
2023-05-09T00:04:48.718Z,78.2048
2023-05-09T00:05:49.671Z,78.1706
2023-05-09T00:06:50.720Z,77.7697
2023-05-09T00:07:51.617Z,77.6106
2023-05-09T00:08:52.781Z,77.5345
2023-05-09T00:09:53.739Z,77.8279
2023-05-09T00:10:54.791Z,77.4681
2023-05-09T00:11:55.733Z,77.5273
2023-05-09T00:12:56.852Z,77.7009
2023-05-09T00:13:57.811Z,77.4925
2023-05-09T00:14:58.931Z,77.3677
2023-05-09T00:15:59.941Z,77.5520
2023-05-09T00:17:00.962Z,77.2829
2023-05-09T00:18:01.968Z,77.0608
2023-05-09T00:19:02.992Z,76.5453
2023-05-09T00:20:04.053Z,76.4236
2023-05-09T00:21:05.113Z,76.5314
2023-05-09T00:22:06.065Z,76.5961
2023-05-09T00:23:07.106Z,76.8260
2023-05-09T00:24:08.167Z,76.6443
2023-05-09T00:25:09.216Z,76.7426
2023-05-09T00:26:10.227Z,76.8802
2023-05-09T00:27:11.105Z,76.7233
2023-05-09T00:28:12.120Z,76.5680
2023-05-09T00:29:13.165Z,76.7429
2023-05-09T00:30:14.195Z,76.8677
2023-05-09T00:31:15.260Z,77.2710
2023-05-09T00:32:16.435Z,77.1845
2023-05-09T00:33:17.295Z,77.2409
2023-05-09T00:34:18.291Z,77.0405
2023-05-09T00:35:19.374Z,76.4808
2023-05-09T00:36:20.371Z,76.6272
2023-05-09T00:37:21.400Z,76.8314
2023-05-09T00:38:22.418Z,77.0873
2023-05-09T00:39:23.462Z,77.3395
2023-05-09T00:40:24.503Z,76.8415
2023-05-09T00:41:25.549Z,76.7479
2023-05-09T00:42:26.524Z,76.9725
2023-05-09T00:43:27.579Z,77.3653
2023-05-09T00:44:28.593Z,77.3482
2023-05-09T00:45:29.665Z,77.3135
2023-05-09T00:46:30.804Z,77.7041
2023-05-09T00:47:31.772Z,77.6586
2023-05-09T00:48:32.710Z,77.7421
2023-05-09T00:49:33.749Z,78.1437
2023-05-09T00:50:34.779Z,77.7167
2023-05-09T00:51:35.814Z,77.7249
2023-05-09T00:52:36.831Z,78.1893
2023-05-09T00:53:37.875Z,78.0495
2023-05-09T00:54:38.890Z,77.9714
2023-05-09T00:55:40.007Z,77.8447
2023-05-09T00:56:41.011Z,77.7319
2023-05-09T00:57:41.996Z,77.9984
2023-05-09T00:58:43.049Z,78.3344
2023-05-09T00:59:44.078Z,78.6639
2023-05-09T01:00:45.135Z,78.7889
2023-05-09T01:01:46.224Z,78.4514
2023-05-09T01:02:47.273Z,78.2643
2023-05-09T01:03:48.272Z,77.8392
2023-05-09T01:04:49.226Z,77.9860
2023-05-09T01:05:50.258Z,78.2931
2023-05-09T01:06:51.326Z,78.3449
2023-05-09T01:07:52.313Z,78.4903
2023-05-09T01:08:53.355Z,78.1211
2023-05-09T01:09:54.353Z,78.0514
2023-05-09T01:10:55.436Z,77.8798
2023-05-09T01:11:56.454Z,77.8178
2023-05-09T01:12:57.534Z,77.9464
2023-05-09T01:13:58.474Z,78.0685
2023-05-09T01:14:59.533Z,78.0789
2023-05-09T01:16:00.562Z,78.2741
2023-05-09T01:17:01.613Z,78.0728
2023-05-09T01:18:02.778Z,77.9369
2023-05-09T01:19:03.691Z,77.7512
2023-05-09T01:20:04.718Z,77.6146
2023-05-09T01:21:05.772Z,77.8146
2023-05-09T01:22:06.854Z,77.8873
2023-05-09T01:23:07.868Z,77.4961
2023-05-09T01:24:08.873Z,77.4230
2023-05-09T01:25:09.889Z,77.1868
2023-05-09T01:26:10.917Z,76.9513
2023-05-09T01:27:11.995Z,77.2012
2023-05-09T01:28:12.994Z,77.3058
2023-05-09T01:29:14.090Z,77.3923
2023-05-09T01:30:15.042Z,77.8096
2023-05-09T01:31:16.224Z,77.9723
2023-05-09T01:32:17.209Z,78.0435
2023-05-09T01:33:18.372Z,78.3385
2023-05-09T01:34:19.300Z,78.4537
2023-05-09T01:35:20.312Z,78.7514
2023-05-09T01:36:21.293Z,79.0598
2023-05-09T01:37:22.370Z,78.7613
2023-05-09T01:38:23.441Z,78.3769
2023-05-09T01:39:24.528Z,78.4516
2023-05-09T01:40:25.416Z,78.4349
2023-05-09T01:41:26.477Z,78.7469
2023-05-09T01:42:27.628Z,78.7770
2023-05-09T01:43:28.618Z,78.5305
2023-05-09T01:44:29.542Z,78.0857
2023-05-09T01:45:30.595Z,77.7027
2023-05-09T01:46:31.744Z,77.9926
2023-05-09T01:47:32.757Z,78.8146
2023-05-09T01:48:33.794Z,79.1970
2023-05-09T01:49:34.735Z,79.1662
2023-05-09T01:50:35.752Z,79.3686
2023-05-09T01:51:36.804Z,79.3756
2023-05-09T01:52:37.853Z,79.3206
2023-05-09T01:53:38.933Z,79.2719
2023-05-09T01:54:39.949Z,78.8492
2023-05-09T01:55:40.951Z,78.9925
2023-05-09T01:56:41.935Z,79.0707
2023-05-09T01:57:43.040Z,78.6209
2023-05-09T01:58:44.072Z,78.7403
2023-05-09T01:59:45.128Z,78.3714
2023-05-09T02:00:46.119Z,78.1388
2023-05-09T02:01:47.121Z,77.9969
2023-05-09T02:02:48.206Z,77.9612
2023-05-09T02:03:49.282Z,77.5146
2023-05-09T02:04:50.357Z,77.6966
2023-05-09T02:05:51.226Z,77.8412
2023-05-09T02:06:52.267Z,77.9240
2023-05-09T02:07:53.308Z,78.1778
2023-05-09T02:08:54.352Z,78.1704
2023-05-09T02:09:55.387Z,78.4784
2023-05-09T02:10:56.386Z,78.0706
2023-05-09T02:11:57.385Z,77.9948
2023-05-09T02:12:58.441Z,78.2535
2023-05-09T02:13:59.492Z,78.2812
2023-05-09T02:15:00.566Z,78.1809
2023-05-09T02:16:01.496Z,78.2067
2023-05-09T02:17:02.646Z,78.1383
2023-05-09T02:18:03.603Z,78.0290
2023-05-09T02:19:04.727Z,77.8997
2023-05-09T02:20:05.689Z,77.9413
2023-05-09T02:21:06.687Z,78.1689
2023-05-09T02:22:07.690Z,78.1849
2023-05-09T02:23:08.730Z,77.8144
2023-05-09T02:24:09.831Z,77.7178
2023-05-09T02:25:10.829Z,77.9059
2023-05-09T02:26:11.836Z,77.9388
2023-05-09T02:27:12.931Z,77.6101
2023-05-09T02:28:13.896Z,77.3873
2023-05-09T02:29:14.960Z,77.4526
2023-05-09T02:30:16.070Z,78.0522
2023-05-09T02:31:16.971Z,77.9522
2023-05-09T02:32:18.031Z,78.0292
2023-05-09T02:33:19.024Z,77.8135
2023-05-09T02:34:20.182Z,77.8149
2023-05-09T02:35:21.130Z,78.0547
2023-05-09T02:36:22.232Z,78.0524
2023-05-09T02:37:23.131Z,78.1957
2023-05-09T02:38:24.194Z,78.3072
2023-05-09T02:39:25.269Z,78.6180
2023-05-09T02:40:26.339Z,78.8489
2023-05-09T02:41:27.291Z,78.5676
2023-05-09T02:42:28.309Z,78.3310
2023-05-09T02:43:29.329Z,78.0778
2023-05-09T02:44:30.428Z,77.8334
2023-05-09T02:45:31.452Z,77.6772
2023-05-09T02:46:32.644Z,77.8908
2023-05-09T02:47:33.616Z,78.1456
2023-05-09T02:48:34.490Z,78.4356
2023-05-09T02:49:35.666Z,78.7633
2023-05-09T02:50:36.672Z,78.8966
2023-05-09T02:51:37.584Z,78.8174
2023-05-09T02:52:38.669Z,78.8744
2023-05-09T02:53:39.666Z,78.7218
2023-05-09T02:54:40.844Z,78.7848
2023-05-09T02:55:41.823Z,78.9617
2023-05-09T02:56:42.751Z,78.6105
2023-05-09T02:57:43.771Z,78.6675
2023-05-09T02:58:44.812Z,78.7017
2023-05-09T02:59:45.904Z,78.3994
2023-05-09T03:00:46.959Z,78.6222
2023-05-09T03:01:47.933Z,78.5705
2023-05-09T03:02:49.020Z,78.2872
2023-05-09T03:03:49.989Z,78.2641
2023-05-09T03:04:51.157Z,78.3820
2023-05-09T03:05:52.073Z,78.3611
2023-05-09T03:06:53.066Z,78.3939
2023-05-09T03:07:54.104Z,78.5201
2023-05-09T03:08:55.092Z,78.6705
2023-05-09T03:09:56.229Z,78.9451
2023-05-09T03:10:57.264Z,79.2085
2023-05-09T03:11:58.217Z,79.3675
2023-05-09T03:12:59.250Z,79.5961
2023-05-09T03:14:00.283Z,79.4548
2023-05-09T03:15:01.369Z,79.5855
2023-05-09T03:16:02.437Z,79.6813
2023-05-09T03:17:03.344Z,79.5852
2023-05-09T03:18:04.510Z,79.6789
2023-05-09T03:19:05.415Z,79.3952
2023-05-09T03:20:06.549Z,79.1190
2023-05-09T03:21:07.616Z,79.2058
2023-05-09T03:22:08.493Z,79.4228
2023-05-09T03:23:09.507Z,79.7331
2023-05-09T03:24:10.634Z,79.7339
2023-05-09T03:25:11.764Z,79.6909
2023-05-09T03:26:12.665Z,79.7143
2023-05-09T03:27:13.618Z,79.3906
2023-05-09T03:28:14.666Z,79.1999
2023-05-09T03:29:15.669Z,79.0292
2023-05-09T03:30:16.806Z,78.9867
2023-05-09T03:31:17.797Z,79.3159
2023-05-09T03:32:18.789Z,79.7214
2023-05-09T03:33:19.772Z,79.9831
2023-05-09T03:34:20.836Z,80.1535
2023-05-09T03:35:22.034Z,80.1208
2023-05-09T03:36:22.934Z,79.9676
2023-05-09T03:37:25.532Z,79.8649
2023-05-09T03:38:24.975Z,79.5400
2023-05-09T03:39:26.067Z,79.8876
2023-05-09T03:40:27.106Z,80.3240
2023-05-09T03:41:28.147Z,79.8612
2023-05-09T03:42:29.186Z,79.7201
2023-05-09T03:43:30.096Z,79.7420
2023-05-09T03:44:31.153Z,80.1558
2023-05-09T03:45:32.241Z,80.0840
2023-05-09T03:46:33.295Z,80.8009
2023-05-09T03:47:34.313Z,81.2279
2023-05-09T03:48:35.266Z,81.7588
2023-05-09T03:49:36.379Z,82.0697
2023-05-09T03:50:37.480Z,81.9870
2023-05-09T03:51:39.868Z,81.9733
2023-05-09T03:52:39.402Z,81.9365
2023-05-09T03:53:40.431Z,81.4711
2023-05-09T03:54:41.433Z,81.0267
2023-05-09T03:55:42.546Z,80.6823
2023-05-09T03:56:43.601Z,80.6964
2023-05-09T03:57:44.519Z,80.7290
2023-05-09T03:58:45.548Z,80.5704
2023-05-09T03:59:46.630Z,80.4102
2023-05-09T04:00:47.635Z,80.1055
2023-05-09T04:01:48.713Z,80.1401
2023-05-09T04:02:49.727Z,80.6686
2023-05-09T04:03:50.775Z,80.5483
2023-05-09T04:04:51.732Z,80.7148
2023-05-09T04:05:52.841Z,80.9662
2023-05-09T04:06:53.882Z,80.9124
2023-05-09T04:07:54.777Z,80.5968
2023-05-09T04:08:55.898Z,80.4908
2023-05-09T04:09:56.921Z,80.5754
2023-05-09T04:10:57.937Z,80.6682
2023-05-09T04:11:58.933Z,80.8987
2023-05-09T04:12:59.974Z,80.9063
2023-05-09T04:14:00.958Z,80.8187
2023-05-09T04:15:01.987Z,80.5658
2023-05-09T04:16:03.050Z,80.2507
2023-05-09T04:17:04.186Z,80.7607
2023-05-09T04:18:05.163Z,81.0135
2023-05-09T04:19:06.100Z,80.8772
2023-05-09T04:20:07.147Z,80.6445
2023-05-09T04:21:08.298Z,80.6061
2023-05-09T04:22:09.282Z,80.0642
2023-05-09T04:23:10.224Z,79.6108
2023-05-09T04:24:11.257Z,79.6284
2023-05-09T04:25:12.379Z,79.8172
2023-05-09T04:26:13.361Z,79.8340
2023-05-09T04:27:14.390Z,80.1544
2023-05-09T04:28:15.370Z,80.8240
2023-05-09T04:29:16.344Z,81.5492
2023-05-09T04:30:17.490Z,81.9837
2023-05-09T04:31:18.572Z,82.1195
2023-05-09T04:32:19.580Z,82.0919
2023-05-09T04:33:20.509Z,82.0039
2023-05-09T04:34:21.561Z,81.8447
2023-05-09T04:35:22.907Z,81.5976
2023-05-09T04:36:23.693Z,81.7781
2023-05-09T04:37:24.638Z,81.9509
2023-05-09T04:38:25.651Z,82.2358
2023-05-09T04:39:26.656Z,81.6226
2023-05-09T04:40:27.716Z,81.5226
2023-05-09T04:41:28.802Z,81.8112
2023-05-09T04:42:29.830Z,81.9753
2023-05-09T04:43:30.831Z,82.3487
2023-05-09T04:44:31.829Z,82.3753
2023-05-09T04:45:32.820Z,82.2273
2023-05-09T04:46:34.081Z,81.7831
2023-05-09T04:47:35.053Z,81.4799
2023-05-09T04:48:35.911Z,81.7160
2023-05-09T04:49:37.008Z,81.4090
2023-05-09T04:50:37.967Z,81.5091
2023-05-09T04:51:39.112Z,81.4976
2023-05-09T04:52:40.145Z,80.8124
2023-05-09T04:53:41.058Z,80.5299
2023-05-09T04:54:42.086Z,80.6418
2023-05-09T04:55:43.142Z,81.3235
2023-05-09T04:56:44.202Z,81.7744
2023-05-09T04:57:45.221Z,81.8301
2023-05-09T04:58:46.185Z,81.3934
2023-05-09T04:59:47.268Z,80.9563
2023-05-09T05:00:48.222Z,81.8154
2023-05-09T05:01:49.381Z,82.3666
2023-05-09T05:02:50.392Z,82.6415
2023-05-09T05:03:51.422Z,82.6899
2023-05-09T05:04:56.017Z,83.1088
2023-05-09T05:05:53.498Z,83.4618
2023-05-09T05:06:54.546Z,83.7364
2023-05-09T05:07:55.533Z,83.5565
2023-05-09T05:08:56.478Z,83.2858
2023-05-09T05:09:57.520Z,82.7354
2023-05-09T05:10:58.633Z,81.9412
2023-05-09T05:12:02.844Z,81.4775
2023-05-09T05:13:00.754Z,81.0150
2023-05-09T05:14:01.613Z,80.8901
2023-05-09T05:15:02.753Z,80.5002
2023-05-09T05:16:03.757Z,79.7659
2023-05-09T05:17:04.788Z,79.5619
2023-05-09T05:18:05.861Z,79.6822
2023-05-09T05:19:06.958Z,79.4758
2023-05-09T05:20:07.857Z,79.9487
2023-05-09T05:21:08.917Z,80.1166
2023-05-09T05:22:10.067Z,79.8927
2023-05-09T05:23:11.021Z,79.8677
2023-05-09T05:24:11.973Z,80.1936
2023-05-09T05:25:13.188Z,80.4119
2023-05-09T05:26:14.096Z,80.4153
2023-05-09T05:27:15.163Z,80.7068
2023-05-09T05:28:16.197Z,80.8041
2023-05-09T05:29:17.136Z,81.0228
2023-05-09T05:30:18.145Z,80.6653
2023-05-09T05:31:19.235Z,80.3323
2023-05-09T05:32:20.219Z,80.5329
2023-05-09T05:33:21.273Z,80.2556
2023-05-09T05:34:22.272Z,80.2591
2023-05-09T05:35:23.373Z,80.2181
2023-05-09T05:36:24.384Z,79.8409
2023-05-09T05:37:25.440Z,79.7650
2023-05-09T05:38:26.434Z,79.8841
2023-05-09T05:39:27.420Z,80.1540
2023-05-09T05:40:28.453Z,81.0116
2023-05-09T05:41:29.459Z,80.8651
2023-05-09T05:42:30.592Z,80.4596
2023-05-09T05:43:31.569Z,79.2744
2023-05-09T05:44:32.551Z,78.8077
2023-05-09T05:45:33.578Z,78.7578
2023-05-09T05:46:34.607Z,78.5790
2023-05-09T05:47:35.707Z,78.7620
2023-05-09T05:48:36.674Z,79.2621
2023-05-09T05:49:37.651Z,79.0981
2023-05-09T05:50:38.771Z,79.0010
2023-05-09T05:51:39.737Z,79.4828
2023-05-09T05:52:40.859Z,80.2254
2023-05-09T05:53:41.851Z,80.8331
2023-05-09T05:54:42.832Z,80.8649
2023-05-09T05:55:43.857Z,80.6932
2023-05-09T05:56:44.951Z,80.9672
2023-05-09T05:57:45.992Z,81.2803
2023-05-09T05:58:46.992Z,81.0725
2023-05-09T05:59:47.950Z,81.5531
2023-05-09T06:00:48.986Z,80.9705
2023-05-09T06:01:50.005Z,80.4705
2023-05-09T06:02:51.168Z,80.6589
2023-05-09T06:03:52.162Z,81.8792
2023-05-09T06:04:54.654Z,82.3599
2023-05-09T06:05:54.109Z,81.6618
2023-05-09T06:06:55.130Z,82.2042
2023-05-09T06:07:56.272Z,81.4793
2023-05-09T06:08:57.233Z,80.4750
2023-05-09T06:09:58.247Z,79.9326
2023-05-09T06:10:59.252Z,80.1002
2023-05-09T06:12:00.356Z,80.5112
2023-05-09T06:13:01.435Z,80.6629
2023-05-09T06:14:02.452Z,81.0259
2023-05-09T06:15:03.338Z,81.2905
2023-05-09T06:16:18.653Z,81.5197
2023-05-09T06:17:05.465Z,81.0498
2023-05-09T06:18:06.584Z,80.9325
2023-05-09T06:19:07.510Z,80.8173
2023-05-09T06:20:08.495Z,81.1546
2023-05-09T06:21:09.493Z,81.2607
2023-05-09T06:22:10.548Z,80.7245
2023-05-09T06:23:11.692Z,80.6541
2023-05-09T06:24:23.538Z,80.3535
2023-05-09T06:25:13.862Z,80.7445
2023-05-09T06:26:14.813Z,80.9952
2023-05-09T06:27:15.709Z,80.9888
2023-05-09T06:28:16.802Z,80.8940
2023-05-09T06:29:17.855Z,81.2984
2023-05-09T06:30:26.282Z,81.2823
2023-05-09T06:31:19.871Z,81.0340
2023-05-09T06:32:20.837Z,81.5860
2023-05-09T06:33:21.959Z,82.0938
2023-05-09T06:34:22.958Z,82.0160
2023-05-09T06:35:23.966Z,81.8307
2023-05-09T06:36:25.000Z,82.0414
2023-05-09T06:37:26.016Z,82.2254
2023-05-09T06:38:27.126Z,82.1929
2023-05-09T06:39:28.092Z,81.5023
2023-05-09T06:40:29.154Z,80.9579
2023-05-09T06:41:30.140Z,80.4734
2023-05-09T06:42:31.140Z,80.1380
2023-05-09T06:43:32.213Z,79.6506
2023-05-09T06:44:33.266Z,79.8082
2023-05-09T06:45:34.258Z,79.4676
2023-05-09T06:46:35.367Z,78.3782
2023-05-09T06:47:36.316Z,77.4253
2023-05-09T06:48:37.323Z,77.1946
2023-05-09T06:49:38.446Z,77.8083
2023-05-09T06:50:39.429Z,77.9886
2023-05-09T06:51:40.376Z,78.2788
2023-05-09T06:52:41.414Z,78.0644
2023-05-09T06:53:42.495Z,77.8481
2023-05-09T06:54:43.517Z,77.3952
2023-05-09T06:55:44.515Z,77.4570
2023-05-09T06:56:45.533Z,77.3147
2023-05-09T06:57:46.653Z,77.1131
2023-05-09T06:58:47.699Z,76.2776
2023-05-09T06:59:48.679Z,76.6062
2023-05-09T07:00:49.611Z,76.2568
2023-05-09T07:01:50.668Z,75.9118
2023-05-09T07:02:51.715Z,75.9713
2023-05-09T07:03:52.812Z,76.6486
2023-05-09T07:04:53.868Z,76.3318
2023-05-09T07:05:54.764Z,76.3812
2023-05-09T07:06:55.804Z,74.5119
2023-05-09T07:07:56.837Z,74.0681
2023-05-09T07:08:57.982Z,74.6722
2023-05-09T07:10:10.316Z,74.8692
2023-05-09T07:10:59.923Z,75.0810
2023-05-09T07:12:01.008Z,76.0436
2023-05-09T07:13:02.007Z,75.5380
2023-05-09T07:14:03.077Z,75.1457
2023-05-09T07:15:04.117Z,73.5815
2023-05-09T07:16:05.127Z,73.1876
2023-05-09T07:17:21.982Z,72.6337
2023-05-09T07:18:07.140Z,72.3344
2023-05-09T07:19:08.228Z,73.3622
2023-05-09T07:20:09.210Z,72.5920
2023-05-09T07:21:10.292Z,73.0486
2023-05-09T07:22:11.242Z,73.4828
2023-05-09T07:23:12.262Z,71.7475
2023-05-09T07:24:13.429Z,71.4120
2023-05-09T07:25:14.600Z,71.8452
2023-05-09T07:26:15.373Z,71.7664
2023-05-09T07:27:16.376Z,70.0652
2023-05-09T07:28:17.408Z,70.2696
2023-05-09T07:29:18.498Z,70.1101
2023-05-09T07:30:19.503Z,69.0372
2023-05-09T07:31:20.552Z,69.2992
2023-05-09T07:32:21.540Z,68.3475
2023-05-09T07:33:22.585Z,68.0560
2023-05-09T07:34:23.679Z,68.0288
2023-05-09T07:35:24.642Z,67.8447
2023-05-09T07:36:25.679Z,67.6877
2023-05-09T07:37:26.743Z,68.2308
2023-05-09T07:38:27.686Z,67.5379
2023-05-09T07:39:28.874Z,67.1811
2023-05-09T07:40:29.896Z,66.6261
2023-05-09T07:41:30.789Z,65.6405
2023-05-09T07:42:31.803Z,64.2007
2023-05-09T07:43:32.844Z,65.1125
2023-05-09T07:44:33.895Z,67.1333
2023-05-09T07:45:35.062Z,66.8190
2023-05-09T07:46:35.987Z,66.7940
2023-05-09T07:47:37.042Z,67.3685
2023-05-09T07:48:38.015Z,67.2524
2023-05-09T07:49:39.037Z,68.4213
2023-05-09T07:50:40.114Z,68.2684
2023-05-09T07:51:41.035Z,68.4246
2023-05-09T07:52:42.118Z,69.1772
2023-05-09T07:53:43.122Z,69.2314
2023-05-09T07:54:44.335Z,68.8764
2023-05-09T07:55:45.209Z,68.4838
2023-05-09T07:56:46.159Z,69.2397
2023-05-09T07:57:47.241Z,69.0905
2023-05-09T07:58:48.211Z,68.7809
2023-05-09T07:59:49.339Z,67.3686
2023-05-09T08:00:50.368Z,67.3923
2023-05-09T08:01:51.404Z,66.4796
2023-05-09T08:02:52.449Z,65.7296
2023-05-09T08:03:53.527Z,66.6202
2023-05-09T08:04:54.509Z,66.7781
2023-05-09T08:05:55.511Z,65.6213
2023-05-09T08:06:56.492Z,64.8106
2023-05-09T08:07:57.513Z,65.2285
2023-05-09T08:08:58.593Z,66.0962
2023-05-09T08:09:59.682Z,66.2149
2023-05-09T08:11:00.705Z,66.0094
2023-05-09T08:12:01.648Z,65.9719
2023-05-09T08:13:02.756Z,65.6851
2023-05-09T08:14:03.734Z,66.2964
2023-05-09T08:15:04.762Z,66.8223
2023-05-09T08:16:05.888Z,67.4890
2023-05-09T08:17:06.856Z,67.2006
2023-05-09T08:18:07.874Z,67.1885
2023-05-09T08:19:08.813Z,67.7090
2023-05-09T08:20:09.909Z,67.1654
2023-05-09T08:21:10.961Z,67.1660
2023-05-09T08:22:11.999Z,67.9591
2023-05-09T08:23:12.980Z,68.2437
2023-05-09T08:24:13.961Z,68.4844
2023-05-09T08:25:15.318Z,67.7404
2023-05-09T08:26:16.119Z,67.3670
2023-05-09T08:27:17.074Z,67.8133
2023-05-09T08:28:18.217Z,66.8770
2023-05-09T08:29:19.413Z,68.2380
2023-05-09T08:30:20.191Z,67.3478
2023-05-09T08:31:21.291Z,68.0708
2023-05-09T08:32:22.207Z,68.2001
2023-05-09T08:33:23.243Z,69.6436
2023-05-09T08:34:24.343Z,70.0765
2023-05-09T08:35:25.420Z,70.4161
2023-05-09T08:36:26.362Z,70.2116
2023-05-09T08:37:27.404Z,69.8164
2023-05-09T08:38:28.453Z,70.3391
2023-05-09T08:39:29.441Z,71.1687
2023-05-09T08:40:30.533Z,69.6972
2023-05-09T08:41:31.586Z,68.7006
2023-05-09T08:42:32.534Z,68.9931
2023-05-09T08:43:33.567Z,68.3326
2023-05-09T08:44:34.554Z,68.5430
2023-05-09T08:45:35.653Z,68.5393
2023-05-09T08:46:36.873Z,68.0702
2023-05-09T08:47:37.703Z,68.2256
2023-05-09T08:48:38.720Z,68.0037
2023-05-09T08:49:39.719Z,67.5111
2023-05-09T08:50:40.803Z,67.6222
2023-05-09T08:51:41.837Z,68.5893
2023-05-09T08:52:42.794Z,68.6372
2023-05-09T08:53:43.815Z,68.6708
2023-05-09T08:54:44.858Z,69.1410
2023-05-09T08:55:45.988Z,69.5827
2023-05-09T08:56:46.989Z,69.7281
2023-05-09T08:57:47.968Z,71.1004
2023-05-09T08:58:49.065Z,70.8428
2023-05-09T08:59:50.066Z,70.6112
2023-05-09T09:00:51.163Z,69.4038
2023-05-09T09:01:52.157Z,68.7641
2023-05-09T09:02:53.311Z,68.7569
2023-05-09T09:03:54.187Z,69.5185
2023-05-09T09:04:55.108Z,69.9429
2023-05-09T09:05:56.252Z,70.6269
2023-05-09T09:06:57.205Z,70.9812
2023-05-09T09:07:58.216Z,70.1972
2023-05-09T09:08:59.263Z,69.4263
2023-05-09T09:10:00.221Z,69.3065
2023-05-09T09:11:01.345Z,69.6946
2023-05-09T09:12:02.299Z,69.5005
2023-05-09T09:13:03.402Z,69.2939
2023-05-09T09:14:04.374Z,68.9547
2023-05-09T09:15:05.391Z,68.5128
2023-05-09T09:16:06.446Z,68.0397
2023-05-09T09:17:07.478Z,67.9417
2023-05-09T09:18:08.594Z,67.7979
2023-05-09T09:19:09.566Z,68.3336
2023-05-09T09:20:10.573Z,69.0987
2023-05-09T09:21:11.612Z,68.9695
2023-05-09T09:22:12.674Z,67.7128
2023-05-09T09:23:13.687Z,68.4013
2023-05-09T09:24:14.685Z,68.8041
2023-05-09T09:25:15.762Z,68.2497
2023-05-09T09:26:16.810Z,67.7841
2023-05-09T09:27:17.837Z,67.6363
2023-05-09T09:28:18.879Z,67.6363
2023-05-09T09:29:19.850Z,67.3594
2023-05-09T09:30:20.893Z,66.3135
2023-05-09T09:31:21.975Z,66.4804
2023-05-09T09:32:22.982Z,65.9311
2023-05-09T09:33:24.016Z,65.8378
2023-05-09T09:34:25.014Z,66.1584
2023-05-09T09:35:26.037Z,65.9941
2023-05-09T09:36:27.073Z,65.7526
2023-05-09T09:37:28.127Z,66.7842
2023-05-09T09:38:29.099Z,67.6324
2023-05-09T09:39:30.147Z,67.0832
2023-05-09T09:40:31.154Z,66.2366
2023-05-09T09:41:32.240Z,66.6574
2023-05-09T09:42:33.248Z,66.5167
2023-05-09T09:43:34.256Z,66.7553
2023-05-09T09:44:35.270Z,66.9016
2023-05-09T09:45:36.399Z,65.3070
2023-05-09T09:46:37.465Z,64.7049
2023-05-09T09:47:38.395Z,64.4750
2023-05-09T09:48:39.433Z,64.4927
2023-05-09T09:49:40.410Z,64.2634
2023-05-09T09:50:41.486Z,63.0411
2023-05-09T09:51:42.456Z,63.3768
2023-05-09T09:52:43.526Z,64.1605
2023-05-09T09:53:44.515Z,64.2114
2023-05-09T09:54:45.591Z,63.6665
2023-05-09T09:55:46.588Z,62.3001
2023-05-09T09:56:47.713Z,61.4490
2023-05-09T09:57:48.599Z,60.7219
2023-05-09T09:58:49.720Z,60.7463
2023-05-09T09:59:50.719Z,60.9811
2023-05-09T10:00:51.755Z,62.0913
2023-05-09T10:01:52.751Z,63.7029
2023-05-09T10:02:53.821Z,63.4490
2023-05-09T10:03:54.943Z,62.5928
2023-05-09T10:04:55.892Z,64.1173
2023-05-09T10:05:56.880Z,64.3020
2023-05-09T10:06:57.941Z,63.8793
2023-05-09T10:07:58.932Z,62.1923
2023-05-09T10:08:59.971Z,60.7064
2023-05-09T10:10:01.038Z,60.8184
2023-05-09T10:11:02.074Z,61.0591
2023-05-09T10:12:03.146Z,62.0233
2023-05-09T10:13:04.143Z,62.0407
2023-05-09T10:14:05.086Z,62.1773
2023-05-09T10:15:06.191Z,63.0336
2023-05-09T10:16:07.281Z,62.6022
2023-05-09T10:17:08.368Z,63.0566
2023-05-09T10:18:09.450Z,63.7247
2023-05-09T10:19:10.312Z,61.4405
2023-05-09T10:20:11.313Z,62.1701
2023-05-09T10:21:12.385Z,61.4914
2023-05-09T10:22:13.422Z,61.2733
2023-05-09T10:23:14.417Z,60.2117
2023-05-09T10:24:15.408Z,60.8806
2023-05-09T10:25:16.628Z,60.8576
2023-05-09T10:26:17.504Z,60.8053
2023-05-09T10:27:18.587Z,59.0616
2023-05-09T10:28:19.616Z,59.2267
2023-05-09T10:29:20.572Z,60.4210
2023-05-09T10:30:21.603Z,58.4223
2023-05-09T10:31:22.731Z,58.7460
2023-05-09T10:32:23.680Z,58.5307
2023-05-09T10:33:24.748Z,58.8971
2023-05-09T10:34:25.739Z,59.1522
2023-05-09T10:35:26.768Z,59.6176
2023-05-09T10:36:27.800Z,59.2408
2023-05-09T10:37:28.850Z,60.3849
2023-05-09T10:38:29.903Z,60.9544
2023-05-09T10:39:30.871Z,61.5981
2023-05-09T10:40:31.945Z,60.8464
2023-05-09T10:41:32.956Z,59.5128
2023-05-09T10:42:34.066Z,59.1949
2023-05-09T10:43:36.674Z,60.8296
2023-05-09T10:44:36.077Z,62.4903
2023-05-09T10:45:37.066Z,63.3196
2023-05-09T10:46:38.154Z,63.4654
2023-05-09T10:47:39.190Z,62.4661
2023-05-09T10:48:40.228Z,62.0763
2023-05-09T10:49:41.192Z,60.3144
2023-05-09T10:50:42.218Z,59.4370
2023-05-09T10:51:43.253Z,59.3803
2023-05-09T10:52:44.287Z,60.3775
2023-05-09T10:53:45.327Z,59.6314
2023-05-09T10:54:46.426Z,58.7355
2023-05-09T10:55:47.518Z,58.6329
2023-05-09T10:56:48.434Z,60.4445
2023-05-09T10:57:49.635Z,59.8487
2023-05-09T10:58:50.663Z,58.7243
2023-05-09T10:59:51.565Z,59.2543
2023-05-09T11:00:52.998Z,58.4506
2023-05-09T11:01:53.659Z,58.3736
2023-05-09T11:02:54.679Z,58.5520
2023-05-09T11:03:55.795Z,57.8768
2023-05-09T11:04:56.776Z,58.3856
2023-05-09T11:05:57.723Z,58.6817
2023-05-09T11:06:58.790Z,59.0369
2023-05-09T11:07:59.827Z,59.1175
2023-05-09T11:09:00.829Z,61.0086
2023-05-09T11:10:01.858Z,60.1867
2023-05-09T11:11:02.896Z,58.2781
2023-05-09T11:12:03.887Z,57.4783
2023-05-09T11:13:05.132Z,58.2268
2023-05-09T11:14:06.014Z,58.5827
2023-05-09T11:15:06.993Z,58.1550
2023-05-09T11:16:08.011Z,57.7797
2023-05-09T11:17:09.018Z,57.6702
2023-05-09T11:18:10.167Z,58.1786
2023-05-09T11:19:11.151Z,58.9328
2023-05-09T11:20:12.239Z,58.2508
2023-05-09T11:21:13.156Z,57.8416
2023-05-09T11:22:14.207Z,58.1089
2023-05-09T11:23:15.277Z,58.1318
2023-05-09T11:24:16.254Z,57.2991
2023-05-09T11:25:17.481Z,56.5617
2023-05-09T11:26:18.310Z,56.0672
2023-05-09T11:27:19.330Z,56.0467
2023-05-09T11:28:20.374Z,58.1179
2023-05-09T11:29:21.471Z,58.2001
2023-05-09T11:30:22.479Z,57.0248
2023-05-09T11:31:23.507Z,58.1322
2023-05-09T11:32:24.520Z,58.8732
2023-05-09T11:33:25.520Z,57.4502
2023-05-09T11:34:26.537Z,56.2347
2023-05-09T11:35:27.542Z,56.4576
2023-05-09T11:36:28.564Z,56.7824
2023-05-09T11:37:29.553Z,56.8871
2023-05-09T11:38:30.659Z,57.3154
2023-05-09T11:39:31.699Z,57.5166
2023-05-09T11:40:32.736Z,57.3129
2023-05-09T11:41:33.736Z,58.0965
2023-05-09T11:42:34.787Z,60.3482
2023-05-09T11:43:35.848Z,61.5535
2023-05-09T11:44:36.878Z,59.6971
2023-05-09T11:45:37.802Z,58.7309
2023-05-09T11:46:38.849Z,57.1319
2023-05-09T11:47:39.864Z,56.3410
2023-05-09T11:48:40.926Z,55.6128
2023-05-09T11:49:41.956Z,55.9527
2023-05-09T11:50:43.018Z,56.6081
2023-05-09T11:51:43.963Z,57.3174
2023-05-09T11:52:45.024Z,58.3687
2023-05-09T11:53:46.124Z,57.7440
2023-05-09T11:54:47.121Z,56.4293
2023-05-09T11:55:48.071Z,56.8899
2023-05-09T11:56:49.147Z,57.5003
2023-05-09T11:57:50.133Z,57.7310
2023-05-09T11:58:51.365Z,55.7054
2023-05-09T11:59:52.228Z,56.2058
2023-05-09T12:00:53.227Z,55.8422
2023-05-09T12:01:54.280Z,54.7898
2023-05-09T12:02:55.314Z,55.0836
2023-05-09T12:03:56.466Z,54.8859
2023-05-09T12:04:57.409Z,54.8446
2023-05-09T12:05:58.303Z,54.8975
2023-05-09T12:06:59.418Z,54.6380
2023-05-09T12:08:00.386Z,54.9715
2023-05-09T12:09:01.466Z,54.7492
2023-05-09T12:10:02.501Z,54.8313
2023-05-09T12:11:03.478Z,54.1758
2023-05-09T12:12:04.597Z,53.0564
2023-05-09T12:13:05.692Z,53.0282
2023-05-09T12:14:06.725Z,52.9549
2023-05-09T12:15:07.658Z,53.2753
2023-05-09T12:16:08.679Z,53.3372
2023-05-09T12:17:09.686Z,53.3900
2023-05-09T12:18:10.721Z,54.6120